Time;durP1;ratioP1;P1;durP2;ratioP2;P2;SDS_P1;SDS_P2;PMS_P1;PMS_P2;Temp;Humidity;BMP_temperature;BMP_pressure;BME280_temperature;BME280_humidity;BME280_pressure;Samples;Min_cycle;Max_cycle;Signal;HPM_P1;HPM_P2
2023/03/10 00:01:12;;;;;;;6.00;3.00;;;;;;;17.57;44.38;99031.38;5072455;28;20044;-63
2023/03/10 00:03:41;;;;;;;5.03;2.75;;;;;;;17.54;44.39;99020.91;5072544;28;20086;-62
2023/03/10 00:06:09;;;;;;;5.75;2.92;;;;;;;17.50;44.26;99017.72;5072275;28;20503;-62
2023/03/10 00:08:38;;;;;;;5.88;3.20;;;;;;;17.49;44.36;99016.03;5072321;28;20048;-62
2023/03/10 00:11:09;;;;;;;4.80;2.85;;;;;;;17.46;44.33;99017.19;5072252;28;20055;-62
2023/03/10 00:13:37;;;;;;;5.90;3.08;;;;;;;17.46;44.26;99024.44;5072119;28;20094;-62
2023/03/10 00:16:06;;;;;;;5.18;2.95;;;;;;;17.42;44.38;99025.78;5072341;28;20072;-62
2023/03/10 00:18:34;;;;;;;6.50;3.20;;;;;;;17.41;44.32;99021.41;5072505;28;20057;-62
2023/03/10 00:21:10;;;;;;;6.32;3.00;;;;;;;17.38;44.36;99017.19;5071906;28;20080;-63
2023/03/10 00:23:38;;;;;;;7.40;2.90;;;;;;;17.36;44.27;99015.66;5072251;28;20048;-62
2023/03/10 00:26:11;;;;;;;6.85;3.35;;;;;;;17.34;44.25;99017.69;5072102;28;20044;-62
2023/03/10 00:28:39;;;;;;;6.40;3.13;;;;;;;17.30;44.29;99021.72;5072024;28;20557;-62
2023/03/10 00:31:11;;;;;;;6.53;3.28;;;;;;;17.30;44.39;99019.88;5072112;28;20404;-63
2023/03/10 00:33:39;;;;;;;5.15;2.92;;;;;;;17.27;44.43;99012.09;5072076;28;20089;-63
2023/03/10 00:36:09;;;;;;;6.65;3.17;;;;;;;17.27;44.31;99017.47;5070316;28;20070;-62
2023/03/10 00:38:39;;;;;;;6.28;3.30;;;;;;;17.26;44.23;99020.34;5071781;28;20059;-62
2023/03/10 00:41:11;;;;;;;5.38;3.10;;;;;;;17.23;44.30;99015.31;5071864;28;20050;-63
2023/03/10 00:43:40;;;;;;;6.35;3.22;;;;;;;17.21;44.17;99014.63;5071931;28;20131;-62
2023/03/10 00:46:09;;;;;;;7.85;3.22;;;;;;;17.15;44.44;99006.19;5071891;28;20044;-62
2023/03/10 00:48:37;;;;;;;6.60;3.35;;;;;;;17.16;44.35;99005.16;5071883;28;20102;-62
2023/03/10 00:51:07;;;;;;;6.10;3.10;;;;;;;17.13;44.24;99000.13;5071686;28;20139;-62
2023/03/10 00:53:36;;;;;;;5.28;2.95;;;;;;;17.12;44.35;98997.59;5071749;28;20060;-63
2023/03/10 00:56:11;;;;;;;5.55;3.10;;;;;;;17.09;44.32;98988.00;5071648;28;20382;-63
2023/03/10 00:58:39;;;;;;;5.97;3.17;;;;;;;17.08;44.45;98980.94;5071697;28;20131;-63
2023/03/10 01:01:13;;;;;;;5.28;2.95;;;;;;;17.02;44.37;98968.09;5070601;28;20040;-62
2023/03/10 01:03:42;;;;;;;5.90;3.17;;;;;;;17.06;44.44;98971.31;5071638;28;20101;-63
2023/03/10 01:06:10;;;;;;;6.80;2.97;;;;;;;17.04;44.52;98974.16;5071610;28;20053;-63
2023/03/10 01:08:39;;;;;;;5.07;2.70;;;;;;;17.00;44.37;98972.81;5071678;28;20056;-61
2023/03/10 01:11:07;;;;;;;5.82;3.10;;;;;;;17.00;44.18;98975.50;5075459;28;20119;-63
2023/03/10 01:13:36;;;;;;;5.85;3.13;;;;;;;16.98;44.30;98974.81;5075763;28;20068;-61
2023/03/10 01:16:08;;;;;;;6.35;3.35;;;;;;;16.96;44.35;98976.81;5075682;28;20052;-62
2023/03/10 01:18:37;;;;;;;5.57;3.00;;;;;;;16.95;44.33;98974.31;5075451;28;20048;-64
2023/03/10 01:21:06;;;;;;;5.82;3.28;;;;;;;16.94;44.31;98978.84;5075574;28;20090;-63
2023/03/10 01:23:34;;;;;;;5.80;2.85;;;;;;;16.92;44.31;98975.47;5075535;28;20044;-64
2023/03/10 01:26:02;;;;;;;6.53;3.03;;;;;;;16.90;44.22;98972.13;5075358;28;20481;-63
2023/03/10 01:28:31;;;;;;;5.72;3.08;;;;;;;16.87;44.34;98967.88;5075313;28;20428;-64
2023/03/10 01:31:00;;;;;;;6.30;3.30;;;;;;;16.84;44.33;98967.38;5075106;28;20057;-63
2023/03/10 01:33:28;;;;;;;6.80;3.38;;;;;;;16.83;44.26;98966.53;5075162;28;20052;-64
2023/03/10 01:35:56;;;;;;;5.82;2.97;;;;;;;16.80;44.14;98958.78;5075279;28;20044;-63
2023/03/10 01:38:24;;;;;;;6.43;3.15;;;;;;;16.81;44.21;98963.16;5075197;28;20456;-64
2023/03/10 01:40:53;;;;;;;5.25;3.00;;;;;;;16.80;44.26;98955.25;5075103;28;20049;-62
2023/03/10 01:43:27;;;;;;;5.55;3.17;;;;;;;16.77;44.34;98944.78;5075028;28;20040;-62
2023/03/10 01:46:40;;;;;;;5.55;2.95;;;;;;;16.75;44.31;98946.81;5074859;28;20102;-62
2023/03/10 01:49:16;;;;;;;5.35;3.03;;;;;;;16.73;44.36;98949.66;5075122;28;20409;-63
2023/03/10 01:51:48;;;;;;;6.55;3.13;;;;;;;16.72;44.26;98955.22;5073564;28;20075;-62
2023/03/10 01:54:20;;;;;;;5.35;3.20;;;;;;;16.70;44.28;98944.63;5074715;28;20052;-62
2023/03/10 01:56:51;;;;;;;5.63;3.30;;;;;;;16.64;44.31;98934.47;5074870;28;20046;-62
2023/03/10 01:59:20;;;;;;;7.03;3.30;;;;;;;16.67;44.17;98935.97;5074744;28;20048;-63
2023/03/10 02:01:51;;;;;;;6.35;3.40;;;;;;;16.65;44.24;98935.28;5074725;28;20067;-62
2023/03/10 02:04:26;;;;;;;5.43;3.10;;;;;;;16.63;44.24;98929.25;5074645;28;20143;-62
2023/03/10 02:06:56;;;;;;;5.82;3.13;;;;;;;16.60;44.24;98927.72;5074522;28;20485;-62
2023/03/10 02:09:25;;;;;;;5.47;3.20;;;;;;;16.60;44.26;98928.56;5074564;28;20067;-62
2023/03/10 02:11:54;;;;;;;6.07;3.17;;;;;;;16.58;44.17;98925.16;5074677;28;20113;-62
2023/03/10 02:14:22;;;;;;;6.43;3.17;;;;;;;16.57;44.25;98928.88;5074521;28;20052;-62
2023/03/10 02:16:52;;;;;;;6.40;3.22;;;;;;;16.55;44.22;98920.13;5074570;28;20044;-62
2023/03/10 02:19:34;;;;;;;5.28;3.03;;;;;;;16.54;44.21;98910.38;5074450;28;20055;-63
2023/03/10 02:22:06;;;;;;;5.80;3.05;;;;;;;16.51;44.16;98908.00;5073246;28;20102;-61
2023/03/10 02:24:43;;;;;;;6.53;3.35;;;;;;;16.50;44.16;98909.00;5074352;28;20049;-63
2023/03/10 02:27:15;;;;;;;5.10;3.10;;;;;;;16.47;44.34;98901.25;5074330;28;20055;-64
2023/03/10 02:29:49;;;;;;;5.07;2.92;;;;;;;16.47;44.15;98909.31;5074043;28;20540;-63
2023/03/10 02:32:29;;;;;;;5.53;2.97;;;;;;;16.44;43.97;98900.72;5074220;28;20123;-62
2023/03/10 02:34:58;;;;;;;6.07;3.10;;;;;;;16.44;44.30;98898.03;5074144;28;20102;-62
2023/03/10 02:37:29;;;;;;;6.28;3.35;;;;;;;16.42;44.12;98892.81;5074198;28;20076;-62
2023/03/10 02:39:59;;;;;;;5.07;2.75;;;;;;;16.40;44.10;98892.13;5073924;28;20420;-62
2023/03/10 02:42:32;;;;;;;5.75;3.28;;;;;;;16.38;43.97;98888.75;5074030;28;20045;-62
2023/03/10 02:45:02;;;;;;;5.95;3.15;;;;;;;16.38;44.12;98898.69;5073911;28;20071;-62
2023/03/10 02:47:30;;;;;;;5.28;3.00;;;;;;;16.36;44.07;98893.47;5074029;28;20461;-62
2023/03/10 02:49:59;;;;;;;5.07;2.85;;;;;;;16.35;43.98;98896.31;5073953;28;20048;-62
2023/03/10 02:52:32;;;;;;;5.38;3.10;;;;;;;16.33;44.02;98892.97;5073685;28;20044;-62
2023/03/10 02:55:00;;;;;;;;;;;;;;;16.32;43.92;98892.13;5074189;28;20040;-63
2023/03/10 02:57:30;;;;;;;6.28;2.95;;;;;;;16.30;44.00;98883.34;5073747;28;19921;-63
2023/03/10 03:00:00;;;;;;;5.40;3.00;;;;;;;16.28;44.15;98883.50;5073766;28;20051;-63
2023/03/10 03:02:31;;;;;;;5.55;2.72;;;;;;;16.28;44.03;98893.44;5073691;28;20538;-62
2023/03/10 03:04:59;;;;;;;8.07;3.03;;;;;;;16.25;44.06;98885.69;5073569;28;20489;-63
2023/03/10 03:07:28;;;;;;;6.18;3.25;;;;;;;16.21;44.05;98876.22;5073397;28;20072;-63
2023/03/10 03:09:56;;;;;;;4.78;2.97;;;;;;;16.22;43.93;98876.09;5073544;28;20485;-63
2023/03/10 03:12:24;;;;;;;5.72;3.00;;;;;;;16.17;44.13;98864.97;5073273;28;20082;-62
2023/03/10 03:14:54;;;;;;;5.78;3.05;;;;;;;16.19;43.87;98870.19;5073432;28;20041;-62
2023/03/10 03:17:22;;;;;;;5.82;2.90;;;;;;;16.16;44.04;98854.38;5073366;28;20045;-62
2023/03/10 03:19:50;;;;;;;5.75;2.90;;;;;;;16.17;43.92;98858.75;5073088;28;20056;-62
2023/03/10 03:22:18;;;;;;;5.18;3.13;;;;;;;16.12;43.97;98853.88;5073390;28;20048;-61
2023/03/10 03:24:46;;;;;;;6.95;3.13;;;;;;;16.12;44.05;98850.34;5073352;28;20131;-61
2023/03/10 03:27:15;;;;;;;6.43;3.47;;;;;;;16.11;43.92;98836.00;5073189;28;20044;-61
2023/03/10 03:29:43;;;;;;;5.65;3.17;;;;;;;16.10;43.93;98838.88;5073086;28;20072;-62
2023/03/10 03:32:12;;;;;;;5.90;3.15;;;;;;;16.08;43.94;98830.97;5072809;28;20052;-62
2023/03/10 03:34:40;;;;;;;6.68;3.38;;;;;;;16.05;43.85;98828.59;5073167;28;20151;-61
2023/03/10 03:37:08;;;;;;;5.75;3.30;;;;;;;16.06;44.00;98832.97;5072846;28;20040;-62
2023/03/10 03:39:37;;;;;;;5.25;3.17;;;;;;;16.03;43.97;98826.09;5072567;28;20556;-62
2023/03/10 03:42:06;;;;;;;5.72;3.20;;;;;;;16.02;43.98;98827.09;5072797;28;20489;-62
2023/03/10 03:44:34;;;;;;;6.55;3.45;;;;;;;16.01;43.96;98820.00;5072715;28;20090;-62
2023/03/10 03:47:02;;;;;;;6.60;3.42;;;;;;;15.99;43.99;98813.94;5072652;28;20051;-61
2023/03/10 03:49:34;;;;;;;4.88;2.97;;;;;;;15.98;43.96;98814.13;5072748;28;20044;-62
2023/03/10 03:52:02;;;;;;;6.13;2.85;;;;;;;15.96;43.85;98806.22;5072547;28;20049;-63
2023/03/10 03:54:32;;;;;;;5.22;3.28;;;;;;;15.95;43.87;98804.53;5072529;28;20059;-61
2023/03/10 03:57:00;;;;;;;5.82;3.50;;;;;;;15.94;43.97;98793.94;5072603;28;20144;-61
2023/03/10 03:59:28;;;;;;;6.30;3.35;;;;;;;15.93;43.87;98787.72;5072446;28;20055;-63
2023/03/10 04:01:56;;;;;;;5.18;3.10;;;;;;;15.89;43.96;98782.81;5072553;28;20123;-63
2023/03/10 04:04:24;;;;;;;6.05;3.70;;;;;;;15.87;43.92;98776.75;5072361;28;20052;-61
2023/03/10 04:06:54;;;;;;;5.68;2.95;;;;;;;15.89;44.04;98778.28;5072423;28;20098;-61
2023/03/10 04:09:22;;;;;;;5.43;3.10;;;;;;;15.86;43.94;98767.00;5072323;28;20052;-62
2023/03/10 04:11:51;;;;;;;5.30;2.63;;;;;;;15.85;43.88;98768.03;5072183;28;20123;-62
2023/03/10 04:14:19;;;;;;;5.47;2.92;;;;;;;15.85;43.93;98771.56;5072131;28;20102;-62
2023/03/10 04:16:47;;;;;;;5.30;3.15;;;;;;;15.83;44.00;98762.81;5072370;28;20086;-61
2023/03/10 04:19:15;;;;;;;5.70;3.22;;;;;;;15.83;44.04;98767.34;5072189;28;20127;-62
2023/03/10 04:21:43;;;;;;;5.25;3.15;;;;;;;15.81;43.94;98759.41;5072398;28;20048;-61
2023/03/10 04:24:13;;;;;;;4.80;3.00;;;;;;;15.80;44.00;98759.59;5072111;28;20374;-62
2023/03/10 04:26:41;;;;;;;5.68;3.33;;;;;;;15.78;43.97;98754.38;5071955;28;20048;-63
2023/03/10 04:29:10;;;;;;;5.35;3.10;;;;;;;15.76;43.96;98751.00;5072080;28;20094;-63
2023/03/10 04:31:39;;;;;;;6.30;2.95;;;;;;;15.76;43.91;98751.00;5071907;28;20133;-63
2023/03/10 04:34:07;;;;;;;6.38;3.17;;;;;;;15.74;43.93;98748.50;5071993;28;20504;-63
2023/03/10 04:36:35;;;;;;;5.45;3.25;;;;;;;15.74;44.15;98747.66;5072007;28;20048;-62
2023/03/10 04:39:05;;;;;;;6.43;3.40;;;;;;;15.72;44.02;98738.88;5071636;28;20061;-62
2023/03/10 04:41:35;;;;;;;6.05;3.17;;;;;;;15.69;44.02;98733.84;5070019;28;20044;-62
2023/03/10 04:44:04;;;;;;;4.57;2.80;;;;;;;15.69;43.96;98728.47;5051154;28;20048;-62
2023/03/10 04:46:32;;;;;;;5.22;3.20;;;;;;;15.68;43.90;98733.00;5051688;28;20051;-61
2023/03/10 04:49:00;;;;;;;5.30;3.03;;;;;;;15.66;44.08;98735.00;5051673;28;20048;-63
2023/03/10 04:51:28;;;;;;;4.80;2.83;;;;;;;15.66;43.89;98732.31;5051842;28;20045;-63
2023/03/10 04:53:58;;;;;;;6.75;3.17;;;;;;;15.64;44.00;98739.72;5071988;28;20049;-61
2023/03/10 04:56:28;;;;;;;6.97;3.58;;;;;;;15.64;44.01;98733.50;5071779;28;20044;-63
2023/03/10 04:58:58;;;;;;;5.47;2.90;;;;;;;15.63;44.07;98737.16;5071601;28;20052;-63
2023/03/10 05:01:31;;;;;;;6.00;3.22;;;;;;;15.62;44.15;98735.47;5071714;28;20060;-62
2023/03/10 05:03:59;;;;;;;5.25;2.83;;;;;;;15.61;43.98;98741.84;5055113;28;20040;-62
2023/03/10 05:06:27;;;;;;;4.90;2.83;;;;;;;15.58;44.00;98736.78;5051555;28;20045;-61
2023/03/10 05:08:56;;;;;;;5.13;3.10;;;;;;;15.59;44.15;98738.47;5051511;28;20047;-62
2023/03/10 05:11:25;;;;;;;5.80;3.10;;;;;;;15.58;44.12;98737.63;5051604;28;20106;-62
2023/03/10 05:13:53;;;;;;;5.20;3.30;;;;;;;15.57;44.10;98729.72;5051600;28;20040;-62
2023/03/10 05:16:22;;;;;;;6.25;3.33;;;;;;;15.56;44.11;98730.72;5051448;28;20041;-63
2023/03/10 05:18:51;;;;;;;5.43;3.10;;;;;;;15.54;44.15;98719.28;5051430;28;20370;-63
2023/03/10 05:21:20;;;;;;;5.57;2.95;;;;;;;15.54;44.18;98713.91;5051383;28;20696;-62
2023/03/10 05:23:48;;;;;;;6.82;3.25;;;;;;;15.53;44.24;98712.22;5057019;28;20402;-61
2023/03/10 05:26:17;;;;;;;6.22;3.28;;;;;;;15.51;44.29;98716.91;5071413;28;20090;-63
2023/03/10 05:28:45;;;;;;;5.72;3.20;;;;;;;15.50;44.31;98708.00;5071394;28;20123;-63
2023/03/10 05:31:15;;;;;;;5.03;2.88;;;;;;;15.48;44.27;98709.19;5071422;28;20044;-62
2023/03/10 05:33:45;;;;;;;4.75;2.67;;;;;;;15.48;44.23;98701.97;5071602;28;20131;-62
2023/03/10 05:36:14;;;;;;;5.07;2.78;;;;;;;15.48;44.27;98704.66;5071230;28;20110;-63
2023/03/10 05:38:42;;;;;;;5.03;3.00;;;;;;;15.47;44.34;98700.28;5071116;28;20405;-62
2023/03/10 05:41:11;;;;;;;5.68;2.78;;;;;;;15.45;44.33;98683.50;5071289;28;20052;-63
2023/03/10 05:43:39;;;;;;;4.97;2.83;;;;;;;15.44;44.44;98685.34;5071153;28;20774;-62
2023/03/10 05:46:08;;;;;;;5.22;2.90;;;;;;;15.45;44.33;98699.63;5070998;28;20516;-62
2023/03/10 05:48:36;;;;;;;6.22;3.13;;;;;;;15.44;44.27;98698.78;5071194;28;20040;-62
2023/03/10 05:51:09;;;;;;;4.65;2.78;;;;;;;15.44;44.32;98696.09;5070810;28;20067;-63
2023/03/10 05:53:38;;;;;;;6.72;3.40;;;;;;;15.42;44.38;98698.06;5070943;28;20066;-62
2023/03/10 05:56:07;;;;;;;5.05;3.10;;;;;;;15.42;44.37;98695.38;5072923;28;20048;-62
2023/03/10 05:58:36;;;;;;;5.95;3.15;;;;;;;15.40;44.45;98691.19;5074725;28;20138;-62
2023/03/10 06:01:05;;;;;;;5.97;3.38;;;;;;;15.41;44.40;98682.13;5074945;28;20040;-62
2023/03/10 06:03:34;;;;;;;6.05;3.00;;;;;;;15.40;44.51;98685.81;5074718;28;20052;-62
2023/03/10 06:06:06;;;;;;;5.55;2.90;;;;;;;15.40;44.45;98686.66;5074496;28;20047;-62
2023/03/10 06:08:35;;;;;;;4.88;3.17;;;;;;;15.37;44.63;98678.91;5074448;28;20071;-62
2023/03/10 06:11:04;;;;;;;5.00;2.83;;;;;;;15.35;44.47;98672.88;5074315;28;20080;-63
2023/03/10 06:13:32;;;;;;;6.00;3.00;;;;;;;15.38;44.34;98677.91;5074336;28;20167;-62
2023/03/10 06:16:03;;;;;;;6.07;3.10;;;;;;;15.39;44.39;98684.13;5073322;28;20045;-62
2023/03/10 06:18:33;;;;;;;5.30;3.17;;;;;;;15.38;44.58;98675.22;5074174;28;20048;-61
2023/03/10 06:21:08;;;;;;;5.20;3.25;;;;;;;15.33;44.61;98680.22;5074239;28;20485;-62
2023/03/10 06:23:37;;;;;;;5.03;3.13;;;;;;;15.38;44.56;98687.81;5074215;28;20044;-62
2023/03/10 06:26:08;;;;;;;4.97;3.05;;;;;;;15.36;44.65;98685.28;5074264;28;20059;-61
2023/03/10 06:28:38;;;;;;;5.25;3.03;;;;;;;15.37;44.56;98681.59;5074200;28;20566;-62
2023/03/10 06:31:09;;;;;;;6.88;3.35;;;;;;;15.36;44.66;98679.09;5073972;28;20098;-62
2023/03/10 06:33:37;;;;;;;5.63;3.20;;;;;;;15.36;44.64;98676.41;5073708;28;20060;-62
2023/03/10 06:36:09;;;;;;;5.68;3.20;;;;;;;15.34;44.68;98675.69;5073682;28;20063;-61
2023/03/10 06:38:37;;;;;;;5.55;3.20;;;;;;;15.35;44.64;98678.25;5073761;28;20401;-62
2023/03/10 06:41:07;;;;;;;5.22;3.08;;;;;;;15.34;44.73;98676.53;5073806;28;20381;-62
2023/03/10 06:43:35;;;;;;;5.68;3.03;;;;;;;15.35;44.67;98672.88;5073768;28;20442;-63
2023/03/10 06:46:06;;;;;;;4.90;2.97;;;;;;;15.34;44.78;98676.53;5073587;28;20047;-63
2023/03/10 06:48:35;;;;;;;5.10;2.90;;;;;;;15.34;44.63;98676.53;5073848;28;20068;-64
2023/03/10 06:51:07;;;;;;;5.45;2.97;;;;;;;15.34;44.75;98678.38;5073592;28;20063;-64
2023/03/10 06:53:36;;;;;;;6.22;3.22;;;;;;;15.34;44.79;98673.00;5074083;28;20560;-63
2023/03/10 06:56:06;;;;;;;5.40;2.90;;;;;;;15.31;44.78;98662.59;5074162;28;20048;-63
2023/03/10 06:58:37;;;;;;;5.63;3.25;;;;;;;15.34;44.76;98673.00;5074823;28;20119;-62
2023/03/10 07:01:06;;;;;;;5.85;3.10;;;;;;;15.33;44.82;98669.47;5074406;28;20040;-63
2023/03/10 07:03:36;;;;;;;5.38;3.33;;;;;;;15.32;44.80;98661.59;5081359;28;20458;-63
2023/03/10 07:06:05;;;;;;;5.82;3.20;;;;;;;15.33;44.91;98661.41;5078937;28;20109;-63
2023/03/10 07:08:35;;;;;;;5.35;3.13;;;;;;;15.33;44.88;98664.09;5079105;28;20049;-63
2023/03/10 07:11:04;;;;;;;5.35;3.22;;;;;;;15.34;44.90;98667.63;5077372;28;20045;-63
2023/03/10 07:13:32;;;;;;;5.45;2.97;;;;;;;15.32;44.84;98657.06;5073348;28;20546;-62
2023/03/10 07:16:00;;;;;;;5.72;3.10;;;;;;;15.34;44.97;98660.41;5073397;28;20051;-63
2023/03/10 07:18:28;;;;;;;5.82;3.10;;;;;;;15.33;45.00;98664.09;5073524;28;20044;-62
2023/03/10 07:20:57;;;;;;;5.60;3.40;;;;;;;15.32;45.07;98662.44;5073250;28;20048;-64
2023/03/10 07:23:25;;;;;;;5.60;2.95;;;;;;;15.33;44.96;98665.94;5072902;28;20052;-63
2023/03/10 07:25:57;;;;;;;5.72;3.00;;;;;;;15.34;44.98;98671.16;5073041;28;20044;-63
2023/03/10 07:28:25;;;;;;;5.07;3.30;;;;;;;15.35;45.10;98655.91;5073023;28;20044;-65
2023/03/10 07:30:56;;;;;;;5.30;3.05;;;;;;;15.37;45.03;98657.44;5071899;28;20114;-62
2023/03/10 07:33:24;;;;;;;6.05;3.22;;;;;;;15.42;45.09;98663.13;5072036;28;20411;-62
2023/03/10 07:35:53;;;;;;;5.18;2.90;;;;;;;15.48;45.34;98661.66;5072479;28;20080;-62
2023/03/10 07:38:21;;;;;;;4.65;3.00;;;;;;;15.61;45.18;98659.38;5072568;28;20558;-62
2023/03/10 07:40:49;;;;;;;5.18;3.08;;;;;;;15.70;45.23;98652.19;5070548;28;20064;-62
2023/03/10 07:43:21;;;;;;;4.55;2.70;;;;;;;15.82;45.01;98650.88;5072217;28;20048;-62
2023/03/10 07:45:50;;;;;;;5.82;3.00;;;;;;;15.94;45.18;98657.66;5071458;28;20109;-61
2023/03/10 07:48:20;;;;;;;4.32;2.50;;;;;;;16.06;44.99;98654.63;5071766;28;20048;-62
2023/03/10 07:50:56;;;;;;;5.10;2.63;;;;;;;16.13;44.82;98656.50;5070962;28;20106;-62
2023/03/10 07:53:24;;;;;;;5.03;2.83;;;;;;;16.19;44.84;98650.44;5071718;28;20499;-62
2023/03/10 07:55:52;;;;;;;4.68;2.85;;;;;;;16.25;44.82;98643.56;5071862;28;20079;-61
2023/03/10 07:58:24;;;;;;;5.28;2.92;;;;;;;16.30;44.86;98646.56;5071120;28;20508;-61
2023/03/10 08:00:58;;;;;;;5.78;2.85;;;;;;;16.30;44.75;98633.13;5071748;28;20040;-62
2023/03/10 08:03:27;;;;;;;5.30;3.00;;;;;;;16.35;44.92;98635.31;5071696;28;20045;-62
2023/03/10 08:05:58;;;;;;;5.78;2.83;;;;;;;16.37;44.85;98627.91;5072776;28;20051;-62
2023/03/10 08:08:27;;;;;;;5.95;2.97;;;;;;;16.38;44.80;98622.38;5072404;28;20045;-62
2023/03/10 08:11:01;;;;;;;5.90;3.08;;;;;;;16.38;44.79;98610.75;5072932;28;20048;-62
2023/03/10 08:13:31;;;;;;;5.30;2.65;;;;;;;16.38;44.86;98616.97;5071928;28;20045;-62
2023/03/10 08:16:00;;;;;;;4.40;2.78;;;;;;;16.39;44.93;98624.03;5071664;28;20055;-62
2023/03/10 08:18:30;;;;;;;5.32;2.80;;;;;;;16.38;45.07;98613.44;5071051;28;20045;-62
2023/03/10 08:20:59;;;;;;;5.93;2.75;;;;;;;16.40;45.08;98609.56;5071079;28;20048;-62
2023/03/10 08:23:27;;;;;;;4.20;2.67;;;;;;;16.39;45.12;98596.28;5071553;28;20102;-63
2023/03/10 08:25:55;;;;;;;5.68;3.33;;;;;;;16.40;45.07;98606.03;5071438;28;20127;-62
2023/03/10 08:28:24;;;;;;;4.72;2.90;;;;;;;16.41;45.26;98605.06;5071381;28;20101;-63
2023/03/10 08:30:54;;;;;;;4.45;2.60;;;;;;;16.41;45.25;98589.75;5071125;28;20490;-62
2023/03/10 08:33:32;;;;;;;5.45;3.28;;;;;;;16.42;45.22;98590.59;5071295;28;20044;-63
2023/03/10 08:36:05;;;;;;;4.20;2.85;;;;;;;16.41;45.24;98589.75;5071339;28;20455;-62
2023/03/10 08:38:33;;;;;;;;;;;;;;;16.42;45.36;98586.06;5071695;28;20401;-61
2023/03/10 08:41:10;;;;;;;5.32;2.80;;;;;;;16.42;45.51;98596.81;5071079;28;19955;-63
2023/03/10 08:43:38;;;;;;;4.55;2.95;;;;;;;16.42;45.47;98580.66;5071006;28;20090;-62
2023/03/10 08:46:09;;;;;;;5.00;2.85;;;;;;;16.41;45.45;98576.31;5071201;28;20079;-61
2023/03/10 08:48:38;;;;;;;5.50;3.10;;;;;;;16.41;45.58;98573.63;5071113;28;20462;-62
2023/03/10 08:51:10;;;;;;;4.65;2.92;;;;;;;16.40;45.67;98561.13;5071219;28;20454;-62
2023/03/10 08:53:45;;;;;;;6.03;2.90;;;;;;;16.42;45.57;98569.91;5071064;28;20044;-63
2023/03/10 08:56:14;;;;;;;4.75;2.85;;;;;;;16.43;45.58;98565.38;5071064;28;20467;-61
2023/03/10 08:58:43;;;;;;;5.25;2.85;;;;;;;16.44;45.39;98562.50;5071002;28;20199;-62
2023/03/10 09:01:15;;;;;;;4.82;2.95;;;;;;;16.44;45.43;98561.66;5070558;28;20460;-63
2023/03/10 09:03:45;;;;;;;4.80;2.80;;;;;;;16.43;45.42;98552.75;5070843;28;20078;-63
2023/03/10 09:06:13;;;;;;;5.28;2.78;;;;;;;16.45;45.44;98552.56;5071062;28;20055;-62
2023/03/10 09:08:42;;;;;;;5.28;3.00;;;;;;;16.45;45.46;98553.41;5070831;28;20497;-63
2023/03/10 09:11:15;;;;;;;5.20;3.40;;;;;;;16.46;45.57;98547.00;5070457;28;20056;-63
2023/03/10 09:13:44;;;;;;;5.05;2.88;;;;;;;16.47;45.52;98539.78;5071136;28;20056;-63
2023/03/10 09:16:14;;;;;;;5.18;3.10;;;;;;;16.48;45.55;98552.22;5071069;28;20054;-62
2023/03/10 09:18:42;;;;;;;5.07;3.10;;;;;;;16.45;45.51;98542.66;5070787;28;20406;-62
2023/03/10 09:21:13;;;;;;;5.78;3.30;;;;;;;16.46;45.67;98552.41;5070548;28;20041;-61
2023/03/10 09:23:43;;;;;;;5.13;3.38;;;;;;;16.47;45.59;98540.63;5070933;28;20053;-62
2023/03/10 09:26:11;;;;;;;4.55;2.70;;;;;;;16.49;45.73;98538.59;5070876;28;20055;-62
2023/03/10 09:28:40;;;;;;;4.82;3.13;;;;;;;16.49;45.69;98532.38;5070709;28;20393;-63
2023/03/10 09:31:09;;;;;;;7.90;3.40;;;;;;;16.50;45.92;98540.28;5072730;28;20505;-61
2023/03/10 09:33:42;;;;;;;5.60;3.53;;;;;;;16.49;45.88;98527.81;5074599;28;20075;-62
2023/03/10 09:36:12;;;;;;;6.28;3.03;;;;;;;16.49;45.98;98533.22;5074612;28;20459;-62
2023/03/10 09:38:41;;;;;;;6.15;3.00;;;;;;;16.54;46.05;98530.84;5074655;28;20041;-64
2023/03/10 09:41:31;;;;;;;6.30;3.30;;;;;;;16.55;45.95;98521.75;5074411;28;20560;-62
2023/03/10 09:44:22;;;;;;;6.25;3.03;;;;;;;16.56;46.18;98515.38;5074288;28;20502;-62
2023/03/10 09:47:03;;;;;;;4.97;2.85;;;;;;;16.57;46.11;98511.66;5074554;28;20555;-62
2023/03/10 09:49:37;;;;;;;5.18;3.40;;;;;;;16.59;46.04;98506.94;5074370;28;20055;-62
2023/03/10 09:52:19;;;;;;;7.47;3.22;;;;;;;16.62;46.14;98500.41;5073961;28;20048;-62
2023/03/10 09:54:57;;;;;;;4.57;2.83;;;;;;;16.64;46.12;98508.28;5074087;28;20127;-62
2023/03/10 09:57:27;;;;;;;11.10;2.85;;;;;;;16.67;47.80;98491.78;5074472;28;20403;-63
2023/03/10 09:59:59;;;;;;;6.90;2.90;;;;;;;16.73;50.13;98485.75;5075102;28;20051;-63
2023/03/10 10:02:32;;;;;;;6.85;3.05;;;;;;;16.78;51.35;98477.97;5074393;28;20045;-62
2023/03/10 10:05:07;;;;;;;6.65;2.70;;;;;;;16.85;52.02;98484.34;5074344;28;20048;-62
2023/03/10 10:07:42;;;;;;;7.78;2.88;;;;;;;16.87;52.04;98476.91;5074194;28;20047;-62
2023/03/10 10:10:17;;;;;;;8.27;2.90;;;;;;;16.92;52.26;98479.94;5073953;28;20048;-62
2023/03/10 10:12:47;;;;;;;10.05;3.10;;;;;;;16.98;52.14;98473.84;5074004;28;20508;-62
2023/03/10 10:15:16;;;;;;;7.15;2.80;;;;;;;17.02;52.29;98463.56;5074216;28;20063;-62
2023/03/10 10:17:59;;;;;;;7.47;2.92;;;;;;;17.05;52.33;98452.44;5074084;28;20040;-62
2023/03/10 10:20:52;;;;;;;7.28;2.70;;;;;;;17.10;52.57;98445.50;5072555;28;20408;-62
2023/03/10 10:23:28;;;;;;;7.22;2.92;;;;;;;17.13;52.48;98437.06;5072296;28;20551;-62
2023/03/10 10:26:01;;;;;;;6.43;2.50;;;;;;;17.17;52.25;98432.16;5072717;28;20048;-62
2023/03/10 10:28:34;;;;;;;;;;;;;;;17.22;52.13;98434.31;5073774;28;20036;-63
2023/03/10 10:31:16;;;;;;;4.82;2.55;;;;;;;17.26;52.35;98430.25;5072958;28;19946;-64
2023/03/10 10:33:56;;;;;;;7.90;3.08;;;;;;;17.29;52.08;98424.50;5073399;28;20127;-62
2023/03/10 10:36:27;;;;;;;6.45;2.63;;;;;;;17.32;52.26;98414.22;5074027;28;20055;-63
2023/03/10 10:38:56;;;;;;;8.32;3.05;;;;;;;17.37;51.93;98413.66;5073660;28;20083;-63
2023/03/10 10:41:28;;;;;;;5.80;2.55;;;;;;;17.41;51.77;98414.97;5073866;28;20045;-63
2023/03/10 10:44:00;;;;;;;5.85;2.88;;;;;;;17.43;51.66;98412.94;5073286;28;20091;-62
2023/03/10 10:46:29;;;;;;;7.05;2.80;;;;;;;17.47;51.62;98419.66;5073957;28;20048;-62
2023/03/10 10:49:03;;;;;;;9.35;2.67;;;;;;;17.51;51.51;98412.03;5074503;28;20048;-62
2023/03/10 10:51:36;;;;;;;7.57;3.05;;;;;;;17.54;51.47;98406.28;5075228;28;20044;-63
2023/03/10 10:54:21;;;;;;;7.07;2.75;;;;;;;17.54;51.37;98401.72;5075049;28;20460;-61
2023/03/10 10:56:54;;;;;;;4.60;2.60;;;;;;;17.62;51.49;98395.44;5073658;28;20045;-63
2023/03/10 10:59:27;;;;;;;6.97;2.72;;;;;;;17.65;51.53;98392.38;5073615;28;20098;-63
2023/03/10 11:01:57;;;;;;;10.88;3.10;;;;;;;17.66;51.36;98392.22;5073287;28;20481;-63
2023/03/10 11:04:46;;;;;;;7.07;2.85;;;;;;;17.68;51.32;98395.56;5073574;28;20041;-63
2023/03/10 11:07:19;;;;;;;8.75;2.78;;;;;;;17.70;51.53;98388.16;5072340;28;20129;-62
2023/03/10 11:09:47;;;;;;;7.73;2.53;;;;;;;17.76;51.36;98380.31;5073699;28;20117;-62
2023/03/10 11:12:21;;;;;;;6.97;2.80;;;;;;;17.77;51.18;98372.09;5073230;28;20049;-62
2023/03/10 11:15:02;;;;;;;6.85;2.70;;;;;;;17.83;51.02;98365.09;5073259;28;20497;-63
2023/03/10 11:17:38;;;;;;;4.95;2.33;;;;;;;17.86;51.03;98365.59;5073287;28;20147;-63
2023/03/10 11:20:17;;;;;;;7.95;2.78;;;;;;;17.84;51.00;98359.53;5073321;28;20374;-61
2023/03/10 11:22:52;;;;;;;6.45;2.58;;;;;;;17.88;50.86;98349.22;5073077;28;20044;-63
2023/03/10 11:25:29;;;;;;;5.72;2.63;;;;;;;17.89;50.92;98353.59;5073343;28;20044;-62
2023/03/10 11:28:14;;;;;;;6.40;2.75;;;;;;;17.88;51.22;98338.44;5073039;28;20071;-64
2023/03/10 11:30:52;;;;;;;6.00;2.40;;;;;;;17.90;51.08;98339.91;5068634;28;20040;-64
2023/03/10 11:33:27;;;;;;;9.00;3.00;;;;;;;17.92;51.09;98331.63;5072760;28;20452;-64
2023/03/10 11:35:59;;;;;;;4.85;2.53;;;;;;;17.94;51.33;98326.88;5072368;28;20047;-65
2023/03/10 11:38:37;;;;;;;4.83;2.47;;;;;;;17.95;51.20;98315.94;5072368;28;20397;-67
2023/03/10 11:41:11;;;;;;;6.55;2.70;;;;;;;17.96;51.39;98312.22;5072455;28;20036;-65
2023/03/10 11:43:53;;;;;;;5.20;2.30;;;;;;;17.99;51.54;98309.13;5072393;28;20183;-64
2023/03/10 11:46:25;;;;;;;4.88;2.40;;;;;;;18.01;51.51;98293.59;5072360;28;20131;-65
2023/03/10 11:49:02;;;;;;;6.40;2.63;;;;;;;18.02;51.36;98294.41;5072098;28;20098;-65
2023/03/10 11:51:37;;;;;;;5.68;2.50;;;;;;;18.08;51.51;98287.47;5071954;28;20057;-64